< < Back
Terminal Aerodrome Forecast


Current Version              Previous Versions:   1  2  3  4  5  6  7  8  9  

Terminal Aerodrome Forecast

155
FTUS44 KOHX 301720
TAFCSV
TAF
KCSV 301720Z 3018/3118 VRB04KT P6SM VCTS BKN050CB
     FM302300 00000KT P6SM SKC
     FM310800 00000KT 3SM BR BCFG SKC
     FM311300 VRB03KT P6SM SKC=

Latest METAR

428
SAUS70 KWBC 310600 RRJ
MTRCSV
METAR KCSV 310553Z AUTO 00000KT 4SM BR CLR 20/20 A3010 RMK AO2 SLP170
T02000200 10267 20200 403000194 58001


USA.gov is the U.S. government's official web portal to all federal, state and local government web resources and services.